createdAt,value
2019-05-30T00:00:28.920Z,0.40
2019-05-30T00:03:15.228Z,0.60
2019-05-30T00:06:02.393Z,0.57
2019-05-30T00:08:48.788Z,0.63
2019-05-30T00:11:35.377Z,0.50
2019-05-30T00:14:21.775Z,0.77
2019-05-30T00:17:08.005Z,0.70
2019-05-30T00:19:55.013Z,0.40
2019-05-30T00:22:41.326Z,0.70
2019-05-30T00:25:27.656Z,0.50
2019-05-30T00:28:14.044Z,0.50
2019-05-30T00:31:00.483Z,0.60
2019-05-30T00:33:46.724Z,0.80
2019-05-30T00:36:32.540Z,0.60
2019-05-30T00:39:18.781Z,0.50
2019-05-30T00:42:04.754Z,0.72
2019-05-30T00:44:50.932Z,0.60
2019-05-30T00:47:37.268Z,0.60
2019-05-30T00:50:23.606Z,0.43
2019-05-30T00:53:09.829Z,0.37
2019-05-30T00:55:56.673Z,0.50
2019-05-30T00:58:43.224Z,0.57
2019-05-30T01:01:29.484Z,0.50
2019-05-30T01:04:15.700Z,0.50
2019-05-30T01:07:03.545Z,0.50
2019-05-30T01:09:49.841Z,0.60
2019-05-30T01:12:35.687Z,0.60
2019-05-30T01:15:22.174Z,0.47
2019-05-30T01:18:08.316Z,0.60
2019-05-30T01:20:54.200Z,0.67
2019-05-30T01:23:42.944Z,0.60
2019-05-30T01:26:28.948Z,0.60
2019-05-30T01:29:15.511Z,0.57
2019-05-30T01:32:21.389Z,0.60
2019-05-30T01:35:08.069Z,0.60
2019-05-30T01:37:54.531Z,0.73
2019-05-30T01:40:40.781Z,0.50
2019-05-30T01:43:27.064Z,0.80
2019-05-30T01:46:13.327Z,0.80
2019-05-30T01:49:00.243Z,0.77
2019-05-30T01:51:46.556Z,0.60
2019-05-30T01:54:32.990Z,0.47
2019-05-30T01:57:19.409Z,0.60
2019-05-30T02:00:15.404Z,0.60
2019-05-30T02:02:55.016Z,0.73
2019-05-30T02:05:40.956Z,0.80
2019-05-30T02:08:27.220Z,0.70
2019-05-30T02:11:13.480Z,0.70
2019-05-30T02:13:59.616Z,0.70
2019-05-30T02:16:45.573Z,0.50
2019-05-30T02:19:31.829Z,0.50
2019-05-30T02:22:18.372Z,0.80
2019-05-30T02:25:04.248Z,0.80
2019-05-30T02:27:50.364Z,0.57
2019-05-30T02:30:36.336Z,0.50
2019-05-30T02:33:22.582Z,0.50
2019-05-30T02:36:10.548Z,0.67
2019-05-30T02:38:56.432Z,0.70
2019-05-30T02:41:42.357Z,0.60
2019-05-30T02:44:28.329Z,0.53
2019-05-30T02:47:14.602Z,0.70
2019-05-30T02:50:01.528Z,0.60
2019-05-30T02:52:48.273Z,0.63
2019-05-30T02:55:34.433Z,0.67
2019-05-30T02:58:20.849Z,0.80
2019-05-30T03:01:09.151Z,1.00
2019-05-30T03:03:55.382Z,0.87
2019-05-30T03:06:41.457Z,0.60
2019-05-30T03:09:27.724Z,0.73
2019-05-30T03:12:13.905Z,0.60
2019-05-30T03:15:02.290Z,0.70
2019-05-30T03:17:48.243Z,0.83
2019-05-30T03:20:34.557Z,0.80
2019-05-30T03:23:20.928Z,0.70
2019-05-30T03:26:10.142Z,0.60
2019-05-30T03:28:55.061Z,0.70
2019-05-30T03:31:42.790Z,0.70
2019-05-30T03:34:29.418Z,1.00
2019-05-30T03:37:27.454Z,0.60
2019-05-30T03:40:04.042Z,1.00
2019-05-30T03:42:50.375Z,0.60
2019-05-30T03:45:36.833Z,0.80
2019-05-30T03:48:24.797Z,0.70
2019-05-30T03:51:12.863Z,0.80
2019-05-30T03:54:00.312Z,1.20
2019-05-30T03:56:48.477Z,0.70
2019-05-30T03:59:36.714Z,0.83
2019-05-30T04:02:57.138Z,0.77
2019-05-30T04:05:36.570Z,1.10
2019-05-30T04:08:23.717Z,0.80
2019-05-30T04:11:12.492Z,0.60
2019-05-30T04:14:01.081Z,0.80
2019-05-30T04:16:47.065Z,0.97
2019-05-30T04:19:33.073Z,0.67
2019-05-30T04:22:19.709Z,0.77
2019-05-30T04:25:06.021Z,0.90
2019-05-30T04:27:52.139Z,0.97
2019-05-30T04:30:38.323Z,1.13
2019-05-30T04:33:32.480Z,1.00
2019-05-30T04:36:12.553Z,0.87
2019-05-30T04:38:58.924Z,0.80
2019-05-30T04:41:45.239Z,0.80
2019-05-30T04:44:31.588Z,0.67
2019-05-30T04:47:18.529Z,0.87
2019-05-30T04:50:05.291Z,0.90
2019-05-30T04:52:51.718Z,1.30
2019-05-30T04:55:37.960Z,1.00
2019-05-30T04:58:24.562Z,0.97
2019-05-30T05:01:11.026Z,0.70
2019-05-30T05:03:57.676Z,0.70
2019-05-30T05:06:43.904Z,0.80
2019-05-30T05:09:29.938Z,0.60
2019-05-30T05:12:16.197Z,0.80
2019-05-30T05:15:02.508Z,1.10
2019-05-30T05:17:48.810Z,0.70
2019-05-30T05:20:36.254Z,0.67
2019-05-30T05:23:23.424Z,0.80
2019-05-30T05:26:10.149Z,0.70
2019-05-30T05:28:55.984Z,0.70
2019-05-30T05:31:41.769Z,0.60
2019-05-30T05:34:27.753Z,0.70
2019-05-30T05:37:14.878Z,0.83
2019-05-30T05:40:00.695Z,0.77
2019-05-30T05:42:46.568Z,1.13
2019-05-30T05:45:32.889Z,0.60
2019-05-30T05:48:18.705Z,0.87
2019-05-30T05:51:04.944Z,0.70
2019-05-30T05:53:50.749Z,0.70
2019-05-30T05:56:37.228Z,0.80
2019-05-30T05:59:23.091Z,0.70
2019-05-30T06:02:09.921Z,0.87
2019-05-30T06:04:56.180Z,0.70
2019-05-30T06:07:42.467Z,0.80
2019-05-30T06:10:28.380Z,0.60
2019-05-30T06:13:14.608Z,0.77
2019-05-30T06:16:00.853Z,0.83
2019-05-30T06:18:47.306Z,0.97
2019-05-30T06:21:33.528Z,0.70
2019-05-30T06:24:19.900Z,0.80
2019-05-30T06:27:06.486Z,0.80
2019-05-30T06:29:52.242Z,0.80
2019-05-30T06:32:38.575Z,1.03
2019-05-30T06:35:25.092Z,0.87
2019-05-30T06:38:11.452Z,1.00
2019-05-30T06:40:57.678Z,1.00
2019-05-30T06:43:44.181Z,0.77
2019-05-30T06:46:31.198Z,0.90
2019-05-30T06:49:17.429Z,0.90
2019-05-30T06:52:06.875Z,0.80
2019-05-30T06:54:53.054Z,0.80
2019-05-30T06:57:39.397Z,1.00
2019-05-30T07:00:26.454Z,1.10
2019-05-30T07:03:12.614Z,0.77
2019-05-30T07:05:59.289Z,1.07
2019-05-30T07:08:45.836Z,0.87
2019-05-30T07:11:33.032Z,0.90
2019-05-30T07:14:19.431Z,0.90
2019-05-30T07:17:05.952Z,0.70
2019-05-30T07:19:52.168Z,0.90
2019-05-30T07:22:38.392Z,0.77
2019-05-30T07:25:25.692Z,1.13
2019-05-30T07:28:11.603Z,0.90
2019-05-30T07:30:57.829Z,1.00
2019-05-30T07:33:44.193Z,0.80
2019-05-30T07:36:30.534Z,0.83
2019-05-30T07:39:16.900Z,0.90
2019-05-30T07:42:06.169Z,1.00
2019-05-30T07:44:50.522Z,1.10
2019-05-30T07:47:36.910Z,0.90
2019-05-30T07:50:24.768Z,0.90
2019-05-30T07:53:10.528Z,1.10
2019-05-30T07:55:56.404Z,0.93
2019-05-30T07:58:42.778Z,0.80
2019-05-30T08:01:30.429Z,0.90
2019-05-30T08:04:17.044Z,1.20
2019-05-30T08:07:03.354Z,0.97
2019-05-30T08:09:49.622Z,1.00
2019-05-30T08:12:36.212Z,1.10
2019-05-30T08:15:22.694Z,0.83
2019-05-30T08:18:08.836Z,1.00
2019-05-30T08:20:55.255Z,0.87
2019-05-30T08:23:41.581Z,1.00
2019-05-30T08:26:28.090Z,0.90
2019-05-30T08:29:14.278Z,0.90
2019-05-30T08:32:00.508Z,1.17
2019-05-30T08:34:46.704Z,1.10
2019-05-30T08:37:33.228Z,0.90
2019-05-30T08:40:19.212Z,0.97
2019-05-30T08:43:05.447Z,1.37
2019-05-30T08:45:51.948Z,1.10
2019-05-30T08:48:38.291Z,1.50
2019-05-30T08:51:24.505Z,1.07
2019-05-30T08:54:13.619Z,1.27
2019-05-30T08:56:58.861Z,1.00
2019-05-30T08:59:45.279Z,1.17
2019-05-30T09:02:31.630Z,1.23
2019-05-30T09:05:18.152Z,0.90
2019-05-30T09:08:04.394Z,1.10
2019-05-30T09:10:50.738Z,0.90
2019-05-30T09:13:37.819Z,1.10
2019-05-30T09:16:24.926Z,1.00
2019-05-30T09:19:11.420Z,1.00
2019-05-30T09:21:57.672Z,0.73
2019-05-30T09:24:44.097Z,1.37
2019-05-30T09:27:30.362Z,1.10
2019-05-30T09:30:16.743Z,1.13
2019-05-30T09:33:02.893Z,0.93
2019-05-30T09:35:49.166Z,1.23
2019-05-30T09:38:35.532Z,1.00
2019-05-30T09:41:22.024Z,0.80
2019-05-30T09:44:08.370Z,1.10
2019-05-30T09:46:54.461Z,1.00
2019-05-30T09:49:41.883Z,0.97
2019-05-30T09:52:28.622Z,1.40
2019-05-30T09:55:15.761Z,1.10
2019-05-30T09:58:02.101Z,1.23
2019-05-30T10:00:48.649Z,1.00
2019-05-30T10:03:38.277Z,1.30
2019-05-30T10:06:29.307Z,1.30
2019-05-30T10:09:12.377Z,1.40
2019-05-30T10:11:58.597Z,1.10
2019-05-30T10:14:45.645Z,1.50
2019-05-30T10:17:32.955Z,1.33
2019-05-30T10:20:19.409Z,1.60
2019-05-30T10:23:05.722Z,1.30
2019-05-30T10:25:51.876Z,1.20
2019-05-30T10:28:38.108Z,1.40
2019-05-30T10:31:24.684Z,1.50
2019-05-30T10:34:12.118Z,1.60
2019-05-30T10:36:58.472Z,1.43
2019-05-30T10:39:45.687Z,1.50
2019-05-30T10:42:32.724Z,1.60
2019-05-30T10:45:19.303Z,1.50
2019-05-30T10:48:05.167Z,1.50
2019-05-30T10:50:52.287Z,1.40
2019-05-30T10:53:38.599Z,1.83
2019-05-30T10:56:24.720Z,1.30
2019-05-30T10:59:11.123Z,1.50
2019-05-30T11:01:57.523Z,1.30
2019-05-30T11:04:43.869Z,1.70
2019-05-30T11:07:36.252Z,1.53
2019-05-30T11:10:33.270Z,1.40
2019-05-30T11:13:19.156Z,1.30
2019-05-30T11:16:05.593Z,1.20
2019-05-30T11:18:53.184Z,1.30
2019-05-30T11:21:40.109Z,1.60
2019-05-30T11:24:26.660Z,1.30
2019-05-30T11:27:12.856Z,1.63
2019-05-30T11:29:59.215Z,1.27
2019-05-30T11:32:45.424Z,1.20
2019-05-30T11:35:31.913Z,1.10
2019-05-30T11:38:18.037Z,1.20
2019-05-30T11:41:03.831Z,1.60
2019-05-30T11:43:51.409Z,1.00
2019-05-30T11:46:37.544Z,1.10
2019-05-30T11:49:23.801Z,1.33
2019-05-30T11:52:09.620Z,1.10
2019-05-30T11:54:56.080Z,1.50
2019-05-30T11:57:42.367Z,1.50
2019-05-30T12:00:29.440Z,1.10
2019-05-30T12:03:15.520Z,1.60
2019-05-30T12:06:02.037Z,1.30
2019-05-30T12:08:48.202Z,1.27
2019-05-30T12:11:34.560Z,1.37
2019-05-30T12:14:21.461Z,1.13
2019-05-30T12:17:08.137Z,1.53
2019-05-30T12:19:55.878Z,0.90
2019-05-30T12:22:44.140Z,1.30
2019-05-30T12:25:30.129Z,1.73
2019-05-30T12:28:16.565Z,1.23
2019-05-30T12:31:06.299Z,1.03
2019-05-30T12:33:50.610Z,1.10
2019-05-30T12:36:37.268Z,1.23
2019-05-30T12:39:23.269Z,1.20
2019-05-30T12:42:09.369Z,1.00
2019-05-30T12:44:55.539Z,1.10
2019-05-30T12:47:41.866Z,1.20
2019-05-30T12:50:28.294Z,1.03
2019-05-30T12:53:14.653Z,1.03
2019-05-30T12:56:00.946Z,1.10
2019-05-30T12:58:47.283Z,1.20
2019-05-30T13:01:33.614Z,1.10
2019-05-30T13:04:20.009Z,1.30
2019-05-30T13:07:07.518Z,1.10
2019-05-30T13:09:54.966Z,1.27
2019-05-30T13:12:41.073Z,1.00
2019-05-30T13:15:27.311Z,1.10
2019-05-30T13:18:13.597Z,1.20
2019-05-30T13:21:00.034Z,1.10
2019-05-30T13:23:46.676Z,1.33
2019-05-30T13:26:35.118Z,1.30
2019-05-30T13:29:21.183Z,1.10
2019-05-30T13:32:07.701Z,1.33
2019-05-30T13:34:53.913Z,1.37
2019-05-30T13:37:40.144Z,0.93
2019-05-30T13:40:26.165Z,1.20
2019-05-30T13:43:12.416Z,0.90
2019-05-30T13:45:58.628Z,1.20
2019-05-30T13:48:45.289Z,1.03
2019-05-30T13:51:31.522Z,1.40
2019-05-30T13:54:17.796Z,1.00
2019-05-30T13:57:05.664Z,1.10
2019-05-30T13:59:52.068Z,1.17
2019-05-30T14:02:37.843Z,1.20
2019-05-30T14:05:24.352Z,1.00
2019-05-30T14:08:16.468Z,1.00
2019-05-30T14:10:58.388Z,1.00
2019-05-30T14:13:44.951Z,1.20
2019-05-30T14:16:31.214Z,1.00
2019-05-30T14:19:17.586Z,1.10
2019-05-30T14:22:05.131Z,0.93
2019-05-30T14:24:51.793Z,1.20
2019-05-30T14:27:38.161Z,1.20
2019-05-30T14:30:24.643Z,1.17
2019-05-30T14:33:10.702Z,1.30
2019-05-30T14:35:56.986Z,0.90
2019-05-30T14:38:57.111Z,1.23
2019-05-30T14:41:31.186Z,1.27
2019-05-30T14:44:17.176Z,1.20
2019-05-30T14:47:04.288Z,1.27
2019-05-30T14:49:50.364Z,1.10
2019-05-30T14:52:36.660Z,1.00
2019-05-30T14:55:23.017Z,1.30
2019-05-30T14:58:09.159Z,1.33
2019-05-30T15:00:55.196Z,1.13
2019-05-30T15:03:41.378Z,1.17
2019-05-30T15:06:27.668Z,0.87
2019-05-30T15:09:22.054Z,1.70
2019-05-30T15:12:02.012Z,1.00
2019-05-30T15:14:48.260Z,1.40
2019-05-30T15:17:34.157Z,1.10
2019-05-30T15:20:20.370Z,1.10
2019-05-30T15:23:07.562Z,1.40
2019-05-30T15:25:53.608Z,1.20
2019-05-30T15:28:39.756Z,1.20
2019-05-30T15:31:26.219Z,1.00
2019-05-30T15:34:12.653Z,1.00
2019-05-30T15:36:58.833Z,1.20
2019-05-30T15:39:45.360Z,1.30
2019-05-30T15:42:31.831Z,1.60
2019-05-30T15:45:18.348Z,1.57
2019-05-30T15:48:04.393Z,1.30
2019-05-30T15:50:50.697Z,1.20
2019-05-30T15:53:36.940Z,1.17
2019-05-30T15:56:23.316Z,1.30
2019-05-30T15:59:13.662Z,1.37
2019-05-30T16:01:59.908Z,1.50
2019-05-30T16:04:45.776Z,1.50
2019-05-30T16:07:31.769Z,1.33
2019-05-30T16:10:18.897Z,1.50
2019-05-30T16:13:05.532Z,1.50
2019-05-30T16:15:51.528Z,1.20
2019-05-30T16:18:37.751Z,1.27
2019-05-30T16:21:24.057Z,1.33
2019-05-30T16:24:10.124Z,1.13
2019-05-30T16:26:56.259Z,1.47
2019-05-30T16:29:42.583Z,1.20
2019-05-30T16:32:28.774Z,1.43
2019-05-30T16:35:15.906Z,1.67
2019-05-30T16:38:02.277Z,1.40
2019-05-30T16:40:48.444Z,1.57
2019-05-30T16:43:34.812Z,1.50
2019-05-30T16:46:22.555Z,1.27
2019-05-30T16:49:09.041Z,1.30
2019-05-30T16:51:55.261Z,1.40
2019-05-30T16:54:41.489Z,1.30
2019-05-30T16:57:27.762Z,1.40
2019-05-30T17:00:15.688Z,1.27
2019-05-30T17:03:02.008Z,1.40
2019-05-30T17:05:48.200Z,1.57
2019-05-30T17:08:35.927Z,1.60
2019-05-30T17:11:22.128Z,1.63
2019-05-30T17:14:08.076Z,1.40
2019-05-30T17:16:54.300Z,1.90
2019-05-30T17:19:40.961Z,1.70
2019-05-30T17:22:30.272Z,1.97
2019-05-30T17:25:14.957Z,1.80
2019-05-30T17:28:01.578Z,2.03
2019-05-30T17:30:47.708Z,1.70
2019-05-30T17:33:33.949Z,1.30
2019-05-30T17:36:20.540Z,1.70
2019-05-30T17:39:07.068Z,1.70
2019-05-30T17:41:53.232Z,1.50
2019-05-30T17:44:39.924Z,1.80
2019-05-30T17:47:25.927Z,1.90
2019-05-30T17:50:12.464Z,1.60
2019-05-30T17:52:58.617Z,1.80
2019-05-30T17:55:44.345Z,1.67
2019-05-30T17:58:30.300Z,1.67
2019-05-30T18:01:16.637Z,1.90
2019-05-30T18:04:02.523Z,1.70
2019-05-30T18:06:48.887Z,1.47
2019-05-30T18:09:35.264Z,1.87
2019-05-30T18:12:22.892Z,1.73
2019-05-30T18:15:09.746Z,1.77
2019-05-30T18:17:55.944Z,1.50
2019-05-30T18:20:48.338Z,1.40
2019-05-30T18:23:30.321Z,1.47
2019-05-30T18:26:16.376Z,1.50
2019-05-30T18:29:02.231Z,1.53
2019-05-30T18:31:48.614Z,1.33
2019-05-30T18:34:34.964Z,1.30
2019-05-30T18:37:22.249Z,1.80
2019-05-30T18:40:08.752Z,1.67
2019-05-30T18:42:54.909Z,1.47
2019-05-30T18:45:40.941Z,1.70
2019-05-30T18:48:28.973Z,1.37
2019-05-30T18:51:15.297Z,1.60
2019-05-30T18:54:01.772Z,1.60
2019-05-30T18:56:48.252Z,1.50
2019-05-30T18:59:34.473Z,1.80
2019-05-30T19:02:20.762Z,1.50
2019-05-30T19:05:07.580Z,1.70
2019-05-30T19:07:53.663Z,1.40
2019-05-30T19:10:39.940Z,1.53
2019-05-30T19:13:26.858Z,1.30
2019-05-30T19:16:13.202Z,1.47
2019-05-30T19:18:59.025Z,1.60
2019-05-30T19:21:45.403Z,1.57
2019-05-30T19:24:32.131Z,2.70
2019-05-30T19:27:18.108Z,1.17
2019-05-30T19:30:04.887Z,1.53
2019-05-30T19:32:51.160Z,1.50
2019-05-30T19:35:37.621Z,1.70
2019-05-30T19:38:23.916Z,1.23
2019-05-30T19:41:10.211Z,1.60
2019-05-30T19:43:56.707Z,1.43
2019-05-30T19:46:42.909Z,1.77
2019-05-30T19:49:28.733Z,1.40
2019-05-30T19:52:14.783Z,1.40
2019-05-30T19:55:00.964Z,1.73
2019-05-30T19:57:47.148Z,1.80
2019-05-30T20:00:35.365Z,1.60
2019-05-30T20:03:35.799Z,1.73
2019-05-30T20:06:08.756Z,1.40
2019-05-30T20:08:55.933Z,1.60
2019-05-30T20:11:42.393Z,1.40
2019-05-30T20:14:28.752Z,1.83
2019-05-30T20:17:15.229Z,2.00
2019-05-30T20:20:01.132Z,1.93
2019-05-30T20:22:47.419Z,1.80
2019-05-30T20:25:34.415Z,1.50
2019-05-30T20:28:20.940Z,1.97
2019-05-30T20:31:06.916Z,1.47
2019-05-30T20:33:53.252Z,1.80
2019-05-30T20:36:40.598Z,1.67
2019-05-30T20:39:26.872Z,1.87
2019-05-30T20:42:19.204Z,1.70
2019-05-30T20:45:00.632Z,1.63
2019-05-30T20:47:47.529Z,1.70
2019-05-30T20:50:34.927Z,1.73
2019-05-30T20:53:21.017Z,1.53
2019-05-30T20:56:07.408Z,1.70
2019-05-30T20:58:53.732Z,1.83
2019-05-30T21:01:39.977Z,1.90
2019-05-30T21:04:25.982Z,2.20
2019-05-30T21:07:12.296Z,1.80
2019-05-30T21:09:58.623Z,1.40
2019-05-30T21:12:48.613Z,1.67
2019-05-30T21:15:35.337Z,1.60
2019-05-30T21:18:23.343Z,1.57
2019-05-30T21:21:09.344Z,1.40
2019-05-30T21:23:55.782Z,1.93
2019-05-30T21:26:42.787Z,1.60
2019-05-30T21:29:29.254Z,1.83
2019-05-30T21:32:15.706Z,1.63
2019-05-30T21:35:01.914Z,1.60
2019-05-30T21:37:48.243Z,1.60
2019-05-30T21:40:34.762Z,1.37
2019-05-30T21:43:20.963Z,1.60
2019-05-30T21:46:07.263Z,1.60
2019-05-30T21:48:53.585Z,1.40
2019-05-30T21:51:41.174Z,1.63
2019-05-30T21:54:27.194Z,1.40
2019-05-30T21:57:13.557Z,1.87
2019-05-30T21:59:59.830Z,1.37
2019-05-30T22:02:49.016Z,1.30
2019-05-30T22:05:35.178Z,1.80
2019-05-30T22:08:21.457Z,1.33
2019-05-30T22:11:07.779Z,1.57
2019-05-30T22:13:54.141Z,1.50
2019-05-30T22:16:41.684Z,1.57
2019-05-30T22:19:28.119Z,1.60
2019-05-30T22:22:14.601Z,2.03
2019-05-30T22:25:00.752Z,1.70
2019-05-30T22:27:48.208Z,1.70
2019-05-30T22:30:35.141Z,1.67
2019-05-30T22:33:21.482Z,1.40
2019-05-30T22:36:07.851Z,1.67
2019-05-30T22:38:54.275Z,1.63
2019-05-30T22:41:40.516Z,1.60
2019-05-30T22:44:26.371Z,1.93
2019-05-30T22:47:12.780Z,1.50
2019-05-30T22:49:59.039Z,1.67
2019-05-30T22:52:45.455Z,1.77
2019-05-30T22:55:31.693Z,1.57
2019-05-30T22:58:18.009Z,2.07
2019-05-30T23:01:04.469Z,1.83
2019-05-30T23:03:52.250Z,2.10
2019-05-30T23:06:38.444Z,1.90
2019-05-30T23:09:24.843Z,1.90
2019-05-30T23:12:11.151Z,2.03
2019-05-30T23:14:57.445Z,1.70
2019-05-30T23:17:43.956Z,2.03
2019-05-30T23:20:30.166Z,2.20
2019-05-30T23:23:16.027Z,2.10
2019-05-30T23:26:02.459Z,2.03
2019-05-30T23:28:48.192Z,1.90
2019-05-30T23:31:34.490Z,2.40
2019-05-30T23:34:20.211Z,2.00
2019-05-30T23:37:06.451Z,1.80
2019-05-30T23:39:52.818Z,1.87
2019-05-30T23:42:39.043Z,2.03
2019-05-30T23:45:25.371Z,2.17
2019-05-30T23:48:12.008Z,1.87
2019-05-30T23:50:57.938Z,2.20
2019-05-30T23:53:44.551Z,2.03
2019-05-30T23:56:30.789Z,2.10
2019-05-30T23:59:17.008Z,2.17
